sensor_id;sensor_type;location;lat;lon;timestamp;temperature;humidity
7720;DHT22;3902;49.474;8.616;2024-01-15T00:02:22;-0.30;99.90
7720;DHT22;3902;49.474;8.616;2024-01-15T00:04:47;-0.20;99.90
7720;DHT22;3902;49.474;8.616;2024-01-15T00:07:13;-0.30;99.90
7720;DHT22;3902;49.474;8.616;2024-01-15T00:09:39;-0.20;99.90
7720;DHT22;3902;49.474;8.616;2024-01-15T00:12:05;-0.20;99.90
7720;DHT22;3902;49.474;8.616;2024-01-15T00:14:31;-0.20;99.90
7720;DHT22;3902;49.474;8.616;2024-01-15T00:16:56;-0.20;99.90
7720;DHT22;3902;49.474;8.616;2024-01-15T00:19:22;-0.30;99.90
7720;DHT22;3902;49.474;8.616;2024-01-15T00:21:49;-0.30;99.90
7720;DHT22;3902;49.474;8.616;2024-01-15T00:24:14;-0.30;99.90
7720;DHT22;3902;49.474;8.616;2024-01-15T00:26:40;-0.20;99.90
7720;DHT22;3902;49.474;8.616;2024-01-15T00:29:09;-0.30;99.90
7720;DHT22;3902;49.474;8.616;2024-01-15T00:31:35;-0.30;99.90
7720;DHT22;3902;49.474;8.616;2024-01-15T00:34:01;-0.20;99.90
7720;DHT22;3902;49.474;8.616;2024-01-15T00:36:26;-0.20;99.90
7720;DHT22;3902;49.474;8.616;2024-01-15T00:38:52;-0.20;99.90
7720;DHT22;3902;49.474;8.616;2024-01-15T00:41:18;-0.20;99.90
7720;DHT22;3902;49.474;8.616;2024-01-15T00:43:46;-0.20;99.90
7720;DHT22;3902;49.474;8.616;2024-01-15T00:46:14;-0.20;99.90
7720;DHT22;3902;49.474;8.616;2024-01-15T00:48:40;-0.20;99.90
7720;DHT22;3902;49.474;8.616;2024-01-15T00:51:05;-0.10;99.90
7720;DHT22;3902;49.474;8.616;2024-01-15T00:53:31;-0.20;99.90
7720;DHT22;3902;49.474;8.616;2024-01-15T00:55:56;-0.20;99.90
7720;DHT22;3902;49.474;8.616;2024-01-15T00:58:22;-0.10;99.90
7720;DHT22;3902;49.474;8.616;2024-01-15T01:00:48;-0.20;99.90
7720;DHT22;3902;49.474;8.616;2024-01-15T01:03:13;-0.20;99.90
7720;DHT22;3902;49.474;8.616;2024-01-15T01:05:39;-0.20;99.90
7720;DHT22;3902;49.474;8.616;2024-01-15T01:08:04;-0.20;99.90
7720;DHT22;3902;49.474;8.616;2024-01-15T01:10:30;-0.20;99.90
7720;DHT22;3902;49.474;8.616;2024-01-15T01:12:55;-0.20;99.90
7720;DHT22;3902;49.474;8.616;2024-01-15T01:15:21;-0.20;99.90
7720;DHT22;3902;49.474;8.616;2024-01-15T01:17:47;-0.20;99.90
7720;DHT22;3902;49.474;8.616;2024-01-15T01:20:12;-0.20;99.90
7720;DHT22;3902;49.474;8.616;2024-01-15T01:22:38;-0.20;99.90
7720;DHT22;3902;49.474;8.616;2024-01-15T01:25:04;-0.20;99.90
7720;DHT22;3902;49.474;8.616;2024-01-15T01:27:30;-0.20;99.90
7720;DHT22;3902;49.474;8.616;2024-01-15T01:29:55;-0.20;99.90
7720;DHT22;3902;49.474;8.616;2024-01-15T01:32:21;-0.20;99.90
7720;DHT22;3902;49.474;8.616;2024-01-15T01:34:46;-0.10;99.90
7720;DHT22;3902;49.474;8.616;2024-01-15T01:37:12;-0.10;99.90
7720;DHT22;3902;49.474;8.616;2024-01-15T01:39:39;-0.20;99.90
7720;DHT22;3902;49.474;8.616;2024-01-15T01:42:05;-0.20;99.90
7720;DHT22;3902;49.474;8.616;2024-01-15T01:44:30;-0.20;99.90
7720;DHT22;3902;49.474;8.616;2024-01-15T01:46:58;-0.20;99.90
7720;DHT22;3902;49.474;8.616;2024-01-15T01:49:24;-0.30;99.90
7720;DHT22;3902;49.474;8.616;2024-01-15T01:51:50;-0.30;99.90
7720;DHT22;3902;49.474;8.616;2024-01-15T01:54:17;-0.30;99.90
7720;DHT22;3902;49.474;8.616;2024-01-15T01:56:43;-0.30;99.90
7720;DHT22;3902;49.474;8.616;2024-01-15T01:59:11;-0.30;99.90
7720;DHT22;3902;49.474;8.616;2024-01-15T02:01:36;-0.20;99.90
7720;DHT22;3902;49.474;8.616;2024-01-15T02:04:03;-0.30;99.90
7720;DHT22;3902;49.474;8.616;2024-01-15T02:06:29;-0.20;99.90
7720;DHT22;3902;49.474;8.616;2024-01-15T02:08:55;-0.20;99.90
7720;DHT22;3902;49.474;8.616;2024-01-15T02:11:21;-0.20;99.90
7720;DHT22;3902;49.474;8.616;2024-01-15T02:13:46;-0.20;99.90
7720;DHT22;3902;49.474;8.616;2024-01-15T02:16:12;-0.10;99.90
7720;DHT22;3902;49.474;8.616;2024-01-15T02:18:42;-0.10;99.90
7720;DHT22;3902;49.474;8.616;2024-01-15T02:21:08;-0.20;99.90
7720;DHT22;3902;49.474;8.616;2024-01-15T02:23:33;-0.20;99.90
7720;DHT22;3902;49.474;8.616;2024-01-15T02:25:59;-0.10;99.90
7720;DHT22;3902;49.474;8.616;2024-01-15T02:28:24;-0.10;99.90
7720;DHT22;3902;49.474;8.616;2024-01-15T02:30:50;-0.10;99.90
7720;DHT22;3902;49.474;8.616;2024-01-15T02:33:15;-0.20;99.90
7720;DHT22;3902;49.474;8.616;2024-01-15T02:35:41;-0.10;99.90
7720;DHT22;3902;49.474;8.616;2024-01-15T02:38:07;-0.10;99.90
7720;DHT22;3902;49.474;8.616;2024-01-15T02:40:33;-0.10;99.90
7720;DHT22;3902;49.474;8.616;2024-01-15T02:42:58;-0.10;99.90
7720;DHT22;3902;49.474;8.616;2024-01-15T02:45:24;-0.10;99.90
7720;DHT22;3902;49.474;8.616;2024-01-15T02:47:50;0.00;99.90
7720;DHT22;3902;49.474;8.616;2024-01-15T02:50:15;0.00;99.90
7720;DHT22;3902;49.474;8.616;2024-01-15T02:52:41;0.00;99.90
7720;DHT22;3902;49.474;8.616;2024-01-15T02:55:07;-0.10;99.90
7720;DHT22;3902;49.474;8.616;2024-01-15T02:57:33;0.00;99.90
7720;DHT22;3902;49.474;8.616;2024-01-15T02:59:58;0.00;99.90
7720;DHT22;3902;49.474;8.616;2024-01-15T03:02:24;0.10;99.90
7720;DHT22;3902;49.474;8.616;2024-01-15T03:04:52;0.10;99.90
7720;DHT22;3902;49.474;8.616;2024-01-15T03:07:18;0.10;99.90
7720;DHT22;3902;49.474;8.616;2024-01-15T03:09:43;0.20;99.90
7720;DHT22;3902;49.474;8.616;2024-01-15T03:12:09;0.20;99.90
7720;DHT22;3902;49.474;8.616;2024-01-15T03:14:35;0.20;99.90
7720;DHT22;3902;49.474;8.616;2024-01-15T03:17:01;0.30;99.90
7720;DHT22;3902;49.474;8.616;2024-01-15T03:19:27;0.30;99.90
7720;DHT22;3902;49.474;8.616;2024-01-15T03:21:52;0.30;99.90
7720;DHT22;3902;49.474;8.616;2024-01-15T03:24:18;0.30;99.90
7720;DHT22;3902;49.474;8.616;2024-01-15T03:26:43;0.40;99.90
7720;DHT22;3902;49.474;8.616;2024-01-15T03:29:09;0.40;99.90
7720;DHT22;3902;49.474;8.616;2024-01-15T03:31:34;0.40;99.90
7720;DHT22;3902;49.474;8.616;2024-01-15T03:34:00;0.40;99.90
7720;DHT22;3902;49.474;8.616;2024-01-15T03:36:26;0.40;99.90
7720;DHT22;3902;49.474;8.616;2024-01-15T03:38:51;0.40;99.90
7720;DHT22;3902;49.474;8.616;2024-01-15T03:41:17;0.40;99.90
7720;DHT22;3902;49.474;8.616;2024-01-15T03:43:42;0.40;99.90
7720;DHT22;3902;49.474;8.616;2024-01-15T03:46:08;0.30;99.90
7720;DHT22;3902;49.474;8.616;2024-01-15T03:48:34;0.30;99.90
7720;DHT22;3902;49.474;8.616;2024-01-15T03:50:59;0.30;99.90
7720;DHT22;3902;49.474;8.616;2024-01-15T03:53:25;0.30;99.90
7720;DHT22;3902;49.474;8.616;2024-01-15T03:55:56;0.30;99.90
7720;DHT22;3902;49.474;8.616;2024-01-15T03:58:22;0.30;99.90
7720;DHT22;3902;49.474;8.616;2024-01-15T04:00:47;0.30;99.90
7720;DHT22;3902;49.474;8.616;2024-01-15T04:03:13;0.40;99.90
7720;DHT22;3902;49.474;8.616;2024-01-15T04:05:38;0.30;99.90
7720;DHT22;3902;49.474;8.616;2024-01-15T04:08:04;0.40;99.90
7720;DHT22;3902;49.474;8.616;2024-01-15T04:10:30;0.40;99.90
7720;DHT22;3902;49.474;8.616;2024-01-15T04:12:55;0.40;99.90
7720;DHT22;3902;49.474;8.616;2024-01-15T04:15:21;0.40;99.90
7720;DHT22;3902;49.474;8.616;2024-01-15T04:17:46;0.40;99.90
7720;DHT22;3902;49.474;8.616;2024-01-15T04:20:12;0.40;99.90
7720;DHT22;3902;49.474;8.616;2024-01-15T04:22:37;0.40;99.90
7720;DHT22;3902;49.474;8.616;2024-01-15T04:25:03;0.30;99.90
7720;DHT22;3902;49.474;8.616;2024-01-15T04:27:29;0.40;99.90
7720;DHT22;3902;49.474;8.616;2024-01-15T04:29:55;0.40;99.90
7720;DHT22;3902;49.474;8.616;2024-01-15T04:32:20;0.40;99.90
7720;DHT22;3902;49.474;8.616;2024-01-15T04:34:46;0.40;99.90
7720;DHT22;3902;49.474;8.616;2024-01-15T04:37:11;0.40;99.90
7720;DHT22;3902;49.474;8.616;2024-01-15T04:39:38;0.40;99.90
7720;DHT22;3902;49.474;8.616;2024-01-15T04:42:04;0.40;99.90
7720;DHT22;3902;49.474;8.616;2024-01-15T04:44:29;0.50;99.90
7720;DHT22;3902;49.474;8.616;2024-01-15T04:46:55;0.50;99.90
7720;DHT22;3902;49.474;8.616;2024-01-15T04:49:20;0.40;99.90
7720;DHT22;3902;49.474;8.616;2024-01-15T04:51:46;0.40;99.90
7720;DHT22;3902;49.474;8.616;2024-01-15T04:54:11;0.40;99.90
7720;DHT22;3902;49.474;8.616;2024-01-15T04:56:37;0.50;99.90
7720;DHT22;3902;49.474;8.616;2024-01-15T04:59:03;0.50;99.90
7720;DHT22;3902;49.474;8.616;2024-01-15T05:01:32;0.50;99.90
7720;DHT22;3902;49.474;8.616;2024-01-15T05:03:58;0.60;99.90
7720;DHT22;3902;49.474;8.616;2024-01-15T05:06:24;0.60;99.90
7720;DHT22;3902;49.474;8.616;2024-01-15T05:08:49;0.50;99.90
7720;DHT22;3902;49.474;8.616;2024-01-15T05:11:15;0.60;99.90
7720;DHT22;3902;49.474;8.616;2024-01-15T05:13:41;0.60;99.90
7720;DHT22;3902;49.474;8.616;2024-01-15T05:16:06;0.60;99.90
7720;DHT22;3902;49.474;8.616;2024-01-15T05:18:32;0.60;99.90
7720;DHT22;3902;49.474;8.616;2024-01-15T05:20:57;0.60;99.90
7720;DHT22;3902;49.474;8.616;2024-01-15T05:23:23;0.60;99.90
7720;DHT22;3902;49.474;8.616;2024-01-15T05:25:48;0.50;99.90
7720;DHT22;3902;49.474;8.616;2024-01-15T05:28:14;0.50;99.90
7720;DHT22;3902;49.474;8.616;2024-01-15T05:30:40;0.60;99.90
7720;DHT22;3902;49.474;8.616;2024-01-15T05:33:05;0.60;99.90
7720;DHT22;3902;49.474;8.616;2024-01-15T05:35:32;0.50;99.90
7720;DHT22;3902;49.474;8.616;2024-01-15T05:37:59;0.50;99.90
7720;DHT22;3902;49.474;8.616;2024-01-15T05:40:24;0.50;99.90
7720;DHT22;3902;49.474;8.616;2024-01-15T05:42:50;0.50;99.90
7720;DHT22;3902;49.474;8.616;2024-01-15T05:45:15;0.50;99.90
7720;DHT22;3902;49.474;8.616;2024-01-15T05:47:41;0.50;99.90
7720;DHT22;3902;49.474;8.616;2024-01-15T05:50:07;0.50;99.90
7720;DHT22;3902;49.474;8.616;2024-01-15T05:52:32;0.50;99.90
7720;DHT22;3902;49.474;8.616;2024-01-15T05:54:58;0.50;99.90
7720;DHT22;3902;49.474;8.616;2024-01-15T05:57:23;0.60;99.90
7720;DHT22;3902;49.474;8.616;2024-01-15T05:59:49;0.60;99.90
7720;DHT22;3902;49.474;8.616;2024-01-15T06:02:15;0.40;99.90
7720;DHT22;3902;49.474;8.616;2024-01-15T06:04:40;0.50;99.90
7720;DHT22;3902;49.474;8.616;2024-01-15T06:07:06;0.40;99.90
7720;DHT22;3902;49.474;8.616;2024-01-15T06:09:31;0.40;99.90
7720;DHT22;3902;49.474;8.616;2024-01-15T06:11:57;0.50;99.90
7720;DHT22;3902;49.474;8.616;2024-01-15T06:14:22;0.50;99.90
7720;DHT22;3902;49.474;8.616;2024-01-15T06:16:48;0.50;99.90
7720;DHT22;3902;49.474;8.616;2024-01-15T06:19:14;0.50;99.90
7720;DHT22;3902;49.474;8.616;2024-01-15T06:21:40;0.60;99.90
7720;DHT22;3902;49.474;8.616;2024-01-15T06:24:05;0.60;99.90
7720;DHT22;3902;49.474;8.616;2024-01-15T06:26:31;0.70;99.90
7720;DHT22;3902;49.474;8.616;2024-01-15T06:28:56;0.70;99.90
7720;DHT22;3902;49.474;8.616;2024-01-15T06:31:22;0.60;99.90
7720;DHT22;3902;49.474;8.616;2024-01-15T06:33:47;0.70;99.90
7720;DHT22;3902;49.474;8.616;2024-01-15T06:36:14;0.70;99.90
7720;DHT22;3902;49.474;8.616;2024-01-15T06:38:42;0.70;99.90
7720;DHT22;3902;49.474;8.616;2024-01-15T06:41:08;0.80;99.90
7720;DHT22;3902;49.474;8.616;2024-01-15T06:43:33;0.80;99.90
7720;DHT22;3902;49.474;8.616;2024-01-15T06:45:59;0.80;99.90
7720;DHT22;3902;49.474;8.616;2024-01-15T06:48:25;0.80;99.90
7720;DHT22;3902;49.474;8.616;2024-01-15T06:50:50;0.80;99.90
7720;DHT22;3902;49.474;8.616;2024-01-15T06:53:16;0.80;99.90
7720;DHT22;3902;49.474;8.616;2024-01-15T06:55:41;0.80;99.90
7720;DHT22;3902;49.474;8.616;2024-01-15T06:58:07;0.70;99.90
7720;DHT22;3902;49.474;8.616;2024-01-15T07:00:33;0.70;99.90
7720;DHT22;3902;49.474;8.616;2024-01-15T07:02:58;0.70;99.90
7720;DHT22;3902;49.474;8.616;2024-01-15T07:05:24;0.70;99.90
7720;DHT22;3902;49.474;8.616;2024-01-15T07:07:50;0.60;99.90
7720;DHT22;3902;49.474;8.616;2024-01-15T07:10:15;0.70;99.90
7720;DHT22;3902;49.474;8.616;2024-01-15T07:12:44;0.70;99.90
7720;DHT22;3902;49.474;8.616;2024-01-15T07:15:10;0.70;99.90
7720;DHT22;3902;49.474;8.616;2024-01-15T07:17:36;0.80;99.90
7720;DHT22;3902;49.474;8.616;2024-01-15T07:20:06;0.80;99.90
7720;DHT22;3902;49.474;8.616;2024-01-15T07:22:33;0.80;99.90
7720;DHT22;3902;49.474;8.616;2024-01-15T07:24:59;0.90;99.90
7720;DHT22;3902;49.474;8.616;2024-01-15T07:27:25;0.90;99.90
7720;DHT22;3902;49.474;8.616;2024-01-15T07:29:50;0.90;99.90
7720;DHT22;3902;49.474;8.616;2024-01-15T07:32:16;0.90;99.90
7720;DHT22;3902;49.474;8.616;2024-01-15T07:34:41;0.90;99.90
7720;DHT22;3902;49.474;8.616;2024-01-15T07:37:07;0.90;99.90
7720;DHT22;3902;49.474;8.616;2024-01-15T07:39:33;1.00;99.90
7720;DHT22;3902;49.474;8.616;2024-01-15T07:41:58;1.00;99.90
7720;DHT22;3902;49.474;8.616;2024-01-15T07:44:24;1.00;99.90
7720;DHT22;3902;49.474;8.616;2024-01-15T07:46:49;1.00;99.90
7720;DHT22;3902;49.474;8.616;2024-01-15T07:49:15;1.00;99.90
7720;DHT22;3902;49.474;8.616;2024-01-15T07:51:42;1.00;99.90
7720;DHT22;3902;49.474;8.616;2024-01-15T07:54:09;1.10;99.90
7720;DHT22;3902;49.474;8.616;2024-01-15T07:56:52;1.00;99.90
7720;DHT22;3902;49.474;8.616;2024-01-15T07:59:18;1.10;99.90
7720;DHT22;3902;49.474;8.616;2024-01-15T08:01:43;1.10;99.90
7720;DHT22;3902;49.474;8.616;2024-01-15T08:04:08;1.10;99.90
7720;DHT22;3902;49.474;8.616;2024-01-15T08:06:38;1.20;99.90
7720;DHT22;3902;49.474;8.616;2024-01-15T08:09:03;1.10;99.90
7720;DHT22;3902;49.474;8.616;2024-01-15T08:11:29;1.10;99.90
7720;DHT22;3902;49.474;8.616;2024-01-15T08:13:55;1.20;99.90
7720;DHT22;3902;49.474;8.616;2024-01-15T08:16:21;1.20;99.90
7720;DHT22;3902;49.474;8.616;2024-01-15T08:18:47;1.20;99.90
7720;DHT22;3902;49.474;8.616;2024-01-15T08:21:13;1.10;99.90
7720;DHT22;3902;49.474;8.616;2024-01-15T08:23:39;1.10;99.90
7720;DHT22;3902;49.474;8.616;2024-01-15T08:26:04;1.20;99.90
7720;DHT22;3902;49.474;8.616;2024-01-15T08:28:30;1.20;99.90
7720;DHT22;3902;49.474;8.616;2024-01-15T08:30:56;1.20;99.90
7720;DHT22;3902;49.474;8.616;2024-01-15T08:33:21;1.20;99.90
7720;DHT22;3902;49.474;8.616;2024-01-15T08:35:47;1.20;99.90
7720;DHT22;3902;49.474;8.616;2024-01-15T08:38:13;1.20;99.90
7720;DHT22;3902;49.474;8.616;2024-01-15T08:40:38;1.30;99.90
7720;DHT22;3902;49.474;8.616;2024-01-15T08:43:04;1.30;99.90
7720;DHT22;3902;49.474;8.616;2024-01-15T08:45:30;1.30;99.90
7720;DHT22;3902;49.474;8.616;2024-01-15T08:47:55;1.30;99.90
7720;DHT22;3902;49.474;8.616;2024-01-15T08:50:21;1.30;99.90
7720;DHT22;3902;49.474;8.616;2024-01-15T08:52:46;1.30;99.90
7720;DHT22;3902;49.474;8.616;2024-01-15T08:55:12;1.30;99.90
7720;DHT22;3902;49.474;8.616;2024-01-15T08:57:38;1.30;99.90
7720;DHT22;3902;49.474;8.616;2024-01-15T09:00:05;1.30;99.90
7720;DHT22;3902;49.474;8.616;2024-01-15T09:02:34;1.30;99.90
7720;DHT22;3902;49.474;8.616;2024-01-15T09:05:00;1.30;99.90
7720;DHT22;3902;49.474;8.616;2024-01-15T09:07:26;1.40;99.90
7720;DHT22;3902;49.474;8.616;2024-01-15T09:09:52;1.30;99.90
7720;DHT22;3902;49.474;8.616;2024-01-15T09:12:18;1.30;99.90
7720;DHT22;3902;49.474;8.616;2024-01-15T09:14:46;1.30;99.90
7720;DHT22;3902;49.474;8.616;2024-01-15T09:17:12;1.30;99.90
7720;DHT22;3902;49.474;8.616;2024-01-15T09:19:37;1.30;99.90
7720;DHT22;3902;49.474;8.616;2024-01-15T09:22:05;1.30;99.90
7720;DHT22;3902;49.474;8.616;2024-01-15T09:24:30;1.30;99.90
7720;DHT22;3902;49.474;8.616;2024-01-15T09:26:56;1.30;99.90
7720;DHT22;3902;49.474;8.616;2024-01-15T09:29:21;1.30;99.90
7720;DHT22;3902;49.474;8.616;2024-01-15T09:31:49;1.30;99.90
7720;DHT22;3902;49.474;8.616;2024-01-15T09:34:15;1.40;99.90
7720;DHT22;3902;49.474;8.616;2024-01-15T09:36:41;1.40;99.90
7720;DHT22;3902;49.474;8.616;2024-01-15T09:39:08;1.40;99.90
7720;DHT22;3902;49.474;8.616;2024-01-15T09:41:35;1.40;99.90
7720;DHT22;3902;49.474;8.616;2024-01-15T09:44:02;1.40;99.90
7720;DHT22;3902;49.474;8.616;2024-01-15T09:46:28;1.40;99.90
7720;DHT22;3902;49.474;8.616;2024-01-15T09:48:54;1.40;99.90
7720;DHT22;3902;49.474;8.616;2024-01-15T09:51:20;1.50;99.90
7720;DHT22;3902;49.474;8.616;2024-01-15T09:53:46;1.50;99.90
7720;DHT22;3902;49.474;8.616;2024-01-15T09:56:12;1.50;99.90
7720;DHT22;3902;49.474;8.616;2024-01-15T09:58:39;1.50;99.90
7720;DHT22;3902;49.474;8.616;2024-01-15T10:01:04;1.50;99.90
7720;DHT22;3902;49.474;8.616;2024-01-15T10:03:30;1.50;99.90
7720;DHT22;3902;49.474;8.616;2024-01-15T10:05:58;1.60;99.90
7720;DHT22;3902;49.474;8.616;2024-01-15T10:08:25;1.60;99.90
7720;DHT22;3902;49.474;8.616;2024-01-15T10:10:51;1.60;99.90
7720;DHT22;3902;49.474;8.616;2024-01-15T10:13:17;1.60;99.90
7720;DHT22;3902;49.474;8.616;2024-01-15T10:15:45;1.70;99.90
7720;DHT22;3902;49.474;8.616;2024-01-15T10:18:12;1.70;99.90
7720;DHT22;3902;49.474;8.616;2024-01-15T10:20:38;1.70;99.90
7720;DHT22;3902;49.474;8.616;2024-01-15T10:23:05;1.80;99.90
7720;DHT22;3902;49.474;8.616;2024-01-15T10:25:30;1.80;99.90
7720;DHT22;3902;49.474;8.616;2024-01-15T10:28:00;1.80;99.90
7720;DHT22;3902;49.474;8.616;2024-01-15T10:30:26;1.80;99.90
7720;DHT22;3902;49.474;8.616;2024-01-15T10:33:02;1.80;99.90
7720;DHT22;3902;49.474;8.616;2024-01-15T10:35:32;1.80;99.90
7720;DHT22;3902;49.474;8.616;2024-01-15T10:38:01;1.70;99.90
7720;DHT22;3902;49.474;8.616;2024-01-15T10:40:28;1.70;99.90
7720;DHT22;3902;49.474;8.616;2024-01-15T10:42:54;1.70;99.90
7720;DHT22;3902;49.474;8.616;2024-01-15T10:45:20;1.70;99.90
7720;DHT22;3902;49.474;8.616;2024-01-15T10:47:45;1.80;99.90
7720;DHT22;3902;49.474;8.616;2024-01-15T10:50:12;1.70;99.90
7720;DHT22;3902;49.474;8.616;2024-01-15T10:52:38;1.70;99.90
7720;DHT22;3902;49.474;8.616;2024-01-15T10:55:07;1.80;99.90
7720;DHT22;3902;49.474;8.616;2024-01-15T10:57:37;1.80;99.90
7720;DHT22;3902;49.474;8.616;2024-01-15T11:00:04;1.80;99.90
7720;DHT22;3902;49.474;8.616;2024-01-15T11:02:35;1.80;99.90
7720;DHT22;3902;49.474;8.616;2024-01-15T11:05:01;1.90;99.90
7720;DHT22;3902;49.474;8.616;2024-01-15T11:07:27;1.90;99.90
7720;DHT22;3902;49.474;8.616;2024-01-15T11:09:52;1.90;99.90
7720;DHT22;3902;49.474;8.616;2024-01-15T11:12:18;1.90;99.90
7720;DHT22;3902;49.474;8.616;2024-01-15T11:14:51;1.90;99.90
7720;DHT22;3902;49.474;8.616;2024-01-15T11:17:17;1.90;99.90
7720;DHT22;3902;49.474;8.616;2024-01-15T11:19:48;1.90;99.90
7720;DHT22;3902;49.474;8.616;2024-01-15T11:24:57;1.90;99.90
7720;DHT22;3902;49.474;8.616;2024-01-15T11:27:43;1.70;99.90
7720;DHT22;3902;49.474;8.616;2024-01-15T11:30:10;1.80;99.90
7720;DHT22;3902;49.474;8.616;2024-01-15T11:32:36;1.80;99.90
7720;DHT22;3902;49.474;8.616;2024-01-15T11:35:03;1.70;99.90
7720;DHT22;3902;49.474;8.616;2024-01-15T11:40:18;1.80;99.90
7720;DHT22;3902;49.474;8.616;2024-01-15T11:42:48;1.80;99.90
7720;DHT22;3902;49.474;8.616;2024-01-15T11:45:18;1.80;99.90
7720;DHT22;3902;49.474;8.616;2024-01-15T11:50:31;1.80;99.90
7720;DHT22;3902;49.474;8.616;2024-01-15T11:53:01;1.70;99.90
7720;DHT22;3902;49.474;8.616;2024-01-15T11:55:33;1.80;99.90
7720;DHT22;3902;49.474;8.616;2024-01-15T11:58:01;1.80;99.90
7720;DHT22;3902;49.474;8.616;2024-01-15T12:00:28;1.80;99.90
7720;DHT22;3902;49.474;8.616;2024-01-15T12:02:54;1.90;99.90
7720;DHT22;3902;49.474;8.616;2024-01-15T12:05:20;1.90;99.90
7720;DHT22;3902;49.474;8.616;2024-01-15T12:07:49;1.90;99.90
7720;DHT22;3902;49.474;8.616;2024-01-15T12:10:16;1.90;99.90
7720;DHT22;3902;49.474;8.616;2024-01-15T12:13:05;2.00;99.90
7720;DHT22;3902;49.474;8.616;2024-01-15T12:15:31;2.00;99.90
7720;DHT22;3902;49.474;8.616;2024-01-15T12:17:58;2.10;99.90
7720;DHT22;3902;49.474;8.616;2024-01-15T12:20:25;2.00;99.90
7720;DHT22;3902;49.474;8.616;2024-01-15T12:22:51;2.00;99.90
7720;DHT22;3902;49.474;8.616;2024-01-15T12:25:17;2.10;99.90
7720;DHT22;3902;49.474;8.616;2024-01-15T12:27:42;2.10;99.90
7720;DHT22;3902;49.474;8.616;2024-01-15T12:30:11;2.10;99.90
7720;DHT22;3902;49.474;8.616;2024-01-15T12:32:37;2.10;99.90
7720;DHT22;3902;49.474;8.616;2024-01-15T12:35:02;2.10;99.90
7720;DHT22;3902;49.474;8.616;2024-01-15T12:37:29;2.10;99.90
7720;DHT22;3902;49.474;8.616;2024-01-15T12:39:55;2.10;99.90
7720;DHT22;3902;49.474;8.616;2024-01-15T12:42:21;2.10;99.90
7720;DHT22;3902;49.474;8.616;2024-01-15T12:44:47;2.10;99.90
7720;DHT22;3902;49.474;8.616;2024-01-15T12:47:12;2.10;99.90
7720;DHT22;3902;49.474;8.616;2024-01-15T12:49:39;2.20;99.90
7720;DHT22;3902;49.474;8.616;2024-01-15T12:52:08;2.20;99.90
7720;DHT22;3902;49.474;8.616;2024-01-15T12:54:34;2.30;99.90
7720;DHT22;3902;49.474;8.616;2024-01-15T12:56:59;2.30;99.90
7720;DHT22;3902;49.474;8.616;2024-01-15T12:59:25;2.30;99.90
7720;DHT22;3902;49.474;8.616;2024-01-15T13:01:50;2.30;99.90
7720;DHT22;3902;49.474;8.616;2024-01-15T13:04:23;2.40;99.90
7720;DHT22;3902;49.474;8.616;2024-01-15T13:06:51;2.40;99.90
7720;DHT22;3902;49.474;8.616;2024-01-15T13:09:17;2.40;99.90
7720;DHT22;3902;49.474;8.616;2024-01-15T13:11:46;2.40;99.90
7720;DHT22;3902;49.474;8.616;2024-01-15T13:14:12;2.30;99.90
7720;DHT22;3902;49.474;8.616;2024-01-15T13:16:39;2.30;99.90
7720;DHT22;3902;49.474;8.616;2024-01-15T13:19:07;2.30;99.90
7720;DHT22;3902;49.474;8.616;2024-01-15T13:21:33;2.30;99.90
7720;DHT22;3902;49.474;8.616;2024-01-15T13:23:59;2.40;99.90
7720;DHT22;3902;49.474;8.616;2024-01-15T13:26:24;2.40;99.90
7720;DHT22;3902;49.474;8.616;2024-01-15T13:28:50;2.40;99.90
7720;DHT22;3902;49.474;8.616;2024-01-15T13:31:15;2.50;99.90
7720;DHT22;3902;49.474;8.616;2024-01-15T13:33:41;2.40;99.90
7720;DHT22;3902;49.474;8.616;2024-01-15T13:36:07;2.40;99.90
7720;DHT22;3902;49.474;8.616;2024-01-15T13:38:36;2.40;99.90
7720;DHT22;3902;49.474;8.616;2024-01-15T13:41:04;2.50;99.90
7720;DHT22;3902;49.474;8.616;2024-01-15T13:43:30;2.40;99.90
7720;DHT22;3902;49.474;8.616;2024-01-15T13:45:56;2.40;99.90
7720;DHT22;3902;49.474;8.616;2024-01-15T13:48:21;2.40;99.90
7720;DHT22;3902;49.474;8.616;2024-01-15T13:50:47;2.50;99.90
7720;DHT22;3902;49.474;8.616;2024-01-15T13:53:12;2.50;99.90
7720;DHT22;3902;49.474;8.616;2024-01-15T13:55:38;2.50;99.90
7720;DHT22;3902;49.474;8.616;2024-01-15T13:58:03;2.50;99.90
7720;DHT22;3902;49.474;8.616;2024-01-15T14:00:31;2.50;99.90
7720;DHT22;3902;49.474;8.616;2024-01-15T14:02:57;2.60;99.90
7720;DHT22;3902;49.474;8.616;2024-01-15T14:05:23;2.50;99.90
7720;DHT22;3902;49.474;8.616;2024-01-15T14:07:49;2.50;99.90
7720;DHT22;3902;49.474;8.616;2024-01-15T14:10:15;2.50;99.90
7720;DHT22;3902;49.474;8.616;2024-01-15T14:12:40;2.50;99.90
7720;DHT22;3902;49.474;8.616;2024-01-15T14:15:07;2.50;99.90
7720;DHT22;3902;49.474;8.616;2024-01-15T14:17:32;2.60;99.90
7720;DHT22;3902;49.474;8.616;2024-01-15T14:19:58;2.60;99.90
7720;DHT22;3902;49.474;8.616;2024-01-15T14:22:24;2.50;99.90
7720;DHT22;3902;49.474;8.616;2024-01-15T14:24:50;2.60;99.90
7720;DHT22;3902;49.474;8.616;2024-01-15T14:27:16;2.60;99.90
7720;DHT22;3902;49.474;8.616;2024-01-15T14:29:42;2.60;99.90
7720;DHT22;3902;49.474;8.616;2024-01-15T14:32:07;2.60;99.90
7720;DHT22;3902;49.474;8.616;2024-01-15T14:34:33;2.70;99.90
7720;DHT22;3902;49.474;8.616;2024-01-15T14:36:59;2.70;99.90
7720;DHT22;3902;49.474;8.616;2024-01-15T14:39:24;2.80;99.90
7720;DHT22;3902;49.474;8.616;2024-01-15T14:41:50;2.70;99.90
7720;DHT22;3902;49.474;8.616;2024-01-15T14:44:16;2.80;99.90
7720;DHT22;3902;49.474;8.616;2024-01-15T14:46:42;2.80;99.90
7720;DHT22;3902;49.474;8.616;2024-01-15T14:49:07;2.70;99.90
7720;DHT22;3902;49.474;8.616;2024-01-15T14:51:33;2.80;99.90
7720;DHT22;3902;49.474;8.616;2024-01-15T14:53:59;2.80;99.90
7720;DHT22;3902;49.474;8.616;2024-01-15T14:56:25;2.80;99.90
7720;DHT22;3902;49.474;8.616;2024-01-15T14:58:50;2.80;99.90
7720;DHT22;3902;49.474;8.616;2024-01-15T15:01:16;2.80;99.90
7720;DHT22;3902;49.474;8.616;2024-01-15T15:03:42;2.80;99.90
7720;DHT22;3902;49.474;8.616;2024-01-15T15:06:08;2.80;99.90
7720;DHT22;3902;49.474;8.616;2024-01-15T15:08:34;2.80;99.90
7720;DHT22;3902;49.474;8.616;2024-01-15T15:11:00;2.80;99.90
7720;DHT22;3902;49.474;8.616;2024-01-15T15:13:26;2.80;99.90
7720;DHT22;3902;49.474;8.616;2024-01-15T15:15:52;2.80;99.90
7720;DHT22;3902;49.474;8.616;2024-01-15T15:18:19;2.80;99.90
7720;DHT22;3902;49.474;8.616;2024-01-15T15:20:44;2.80;99.90
7720;DHT22;3902;49.474;8.616;2024-01-15T15:23:10;2.80;99.90
7720;DHT22;3902;49.474;8.616;2024-01-15T15:25:36;2.70;99.90
7720;DHT22;3902;49.474;8.616;2024-01-15T15:28:02;2.70;99.90
7720;DHT22;3902;49.474;8.616;2024-01-15T15:30:30;2.80;99.90
7720;DHT22;3902;49.474;8.616;2024-01-15T15:32:56;2.80;99.90
7720;DHT22;3902;49.474;8.616;2024-01-15T15:35:21;2.70;99.90
7720;DHT22;3902;49.474;8.616;2024-01-15T15:37:47;2.80;99.90
7720;DHT22;3902;49.474;8.616;2024-01-15T15:40:12;2.80;99.90
7720;DHT22;3902;49.474;8.616;2024-01-15T15:42:38;2.70;99.90
7720;DHT22;3902;49.474;8.616;2024-01-15T15:45:04;2.70;99.90
7720;DHT22;3902;49.474;8.616;2024-01-15T15:47:30;2.80;99.90
7720;DHT22;3902;49.474;8.616;2024-01-15T15:49:56;2.80;99.90
7720;DHT22;3902;49.474;8.616;2024-01-15T15:52:22;2.80;99.90
7720;DHT22;3902;49.474;8.616;2024-01-15T15:54:47;2.70;99.90
7720;DHT22;3902;49.474;8.616;2024-01-15T15:57:13;2.70;99.90
7720;DHT22;3902;49.474;8.616;2024-01-15T15:59:38;2.70;99.90
7720;DHT22;3902;49.474;8.616;2024-01-15T16:02:04;2.70;99.90
7720;DHT22;3902;49.474;8.616;2024-01-15T16:04:30;2.70;99.90
7720;DHT22;3902;49.474;8.616;2024-01-15T16:06:55;2.70;99.90
7720;DHT22;3902;49.474;8.616;2024-01-15T16:09:21;2.70;99.90
7720;DHT22;3902;49.474;8.616;2024-01-15T16:11:47;2.70;99.90
7720;DHT22;3902;49.474;8.616;2024-01-15T16:14:14;2.70;99.90
7720;DHT22;3902;49.474;8.616;2024-01-15T16:16:41;2.60;99.90